CTN7H LDSP-LSZH
Flight info
| Callsign | CTN7H |
|---|---|
| Flight time | 1h 13m |
| Altitude | 36000 |
| Route | ZDA DCT MONFA DCT BAKOR DCT SOTOV/N0439F300 P66 KPT L856 NEGRA |
| Aircraft | A320/M-SDE3FGHIRWY/LB1 |
Departure
| Time | 2026-04-26 17:31 |
|---|---|
| Airport | Split Saint Jerome Airport (LDSP) |
Arrival
| Time | 2026-04-26 18:45 |
|---|---|
| Airport | Zürich Airport (LSZH) |
| Time | Latitude | Longitude | Altitude | Speed | Heading |
|---|---|---|---|---|---|
| 2026-04-26 17:05 | 43.53726 | 16.29873 | 66 ft | 0 kts | 115° |
| 2026-04-26 17:25 | 43.53726 | 16.29874 | 68 ft | 1 kts | 115° |
| 2026-04-26 17:25 | 43.53738 | 16.29892 | 60 ft | 5 kts | 21° |
| 2026-04-26 17:25 | 43.53777 | 16.29849 | 68 ft | 11 kts | 278° |
| 2026-04-26 17:25 | 43.53730 | 16.29743 | 68 ft | 14 kts | 233° |
| 2026-04-26 17:26 | 43.53677 | 16.29642 | 60 ft | 12 kts | 239° |
| 2026-04-26 17:26 | 43.53671 | 16.29611 | 68 ft | 0 kts | 271° |
| 2026-04-26 17:26 | 43.53672 | 16.29607 | 66 ft | 1 kts | 280° |
| 2026-04-26 17:26 | 43.53688 | 16.29568 | 71 ft | 7 kts | 298° |
| 2026-04-26 17:27 | 43.53696 | 16.29500 | 85 ft | 7 kts | 267° |
| 2026-04-26 17:27 | 43.53666 | 16.29381 | 83 ft | 19 kts | 238° |
| 2026-04-26 17:27 | 43.53603 | 16.29270 | 82 ft | 25 kts | 233° |
| 2026-04-26 17:27 | 43.53496 | 16.29080 | 87 ft | 27 kts | 232° |
| 2026-04-26 17:28 | 43.53382 | 16.28874 | 87 ft | 27 kts | 232° |
| 2026-04-26 17:28 | 43.53274 | 16.28683 | 87 ft | 17 kts | 232° |
| 2026-04-26 17:28 | 43.53199 | 16.28601 | 86 ft | 9 kts | 236° |
| 2026-04-26 17:28 | 43.53218 | 16.28586 | 84 ft | 3 kts | 39° |
| 2026-04-26 17:29 | 43.53228 | 16.28599 | 87 ft | 1 kts | 49° |
| 2026-04-26 17:29 | 43.53229 | 16.28601 | 87 ft | 0 kts | 49° |
| 2026-04-26 17:30 | 43.53260 | 16.28652 | 86 ft | 32 kts | 51° |
| 2026-04-26 17:30 | 43.53550 | 16.29174 | 86 ft | 102 kts | 52° |
| 2026-04-26 17:31 | 43.54102 | 16.30179 | 82 ft | 157 kts | 55° |
| 2026-04-26 17:31 | 43.54794 | 16.31512 | 322 ft | 185 kts | 56° |
| 2026-04-26 17:31 | 43.55518 | 16.33078 | 888 ft | 195 kts | 71° |
| 2026-04-26 17:31 | 43.55580 | 16.34881 | 1680 ft | 192 kts | 108° |
| 2026-04-26 17:32 | 43.54807 | 16.36429 | 2026 ft | 211 kts | 145° |
| 2026-04-26 17:32 | 43.53401 | 16.37233 | 2382 ft | 228 kts | 171° |
| 2026-04-26 17:32 | 43.51787 | 16.37403 | 3004 ft | 237 kts | 181° |
| 2026-04-26 17:32 | 43.50072 | 16.37531 | 3443 ft | 259 kts | 173° |
| 2026-04-26 17:33 | 43.48160 | 16.37995 | 3521 ft | 298 kts | 171° |
| 2026-04-26 17:33 | 43.46025 | 16.38337 | 3897 ft | 319 kts | 180° |
| 2026-04-26 17:33 | 43.43774 | 16.37920 | 4428 ft | 324 kts | 200° |
| 2026-04-26 17:34 | 43.40675 | 16.34468 | 6521 ft | 283 kts | 236° |
| 2026-04-26 17:34 | 43.39633 | 16.32125 | 7378 ft | 285 kts | 239° |
| 2026-04-26 17:34 | 43.38631 | 16.29752 | 8185 ft | 289 kts | 238° |
| 2026-04-26 17:34 | 43.37570 | 16.27382 | 8992 ft | 292 kts | 236° |
| 2026-04-26 17:35 | 43.36481 | 16.25011 | 9784 ft | 296 kts | 243° |
| 2026-04-26 17:35 | 43.35896 | 16.22322 | 10434 ft | 305 kts | 264° |
| 2026-04-26 17:35 | 43.36119 | 16.19303 | 10637 ft | 327 kts | 290° |
| 2026-04-26 17:35 | 43.37362 | 16.16615 | 10884 ft | 343 kts | 318° |
| 2026-04-26 17:36 | 43.39235 | 16.14521 | 11474 ft | 349 kts | 323° |
| 2026-04-26 17:36 | 43.41128 | 16.12471 | 12189 ft | 352 kts | 322° |
| 2026-04-26 17:36 | 43.43078 | 16.10348 | 12938 ft | 355 kts | 322° |
| 2026-04-26 17:36 | 43.45017 | 16.08224 | 13694 ft | 357 kts | 322° |
| 2026-04-26 17:37 | 43.46934 | 16.06123 | 14240 ft | 356 kts | 322° |
| 2026-04-26 17:37 | 43.48887 | 16.03976 | 14681 ft | 361 kts | 322° |
| 2026-04-26 17:37 | 43.50849 | 16.01813 | 15340 ft | 362 kts | 322° |
| 2026-04-26 17:38 | 43.54831 | 15.97425 | 16475 ft | 371 kts | 322° |
| 2026-04-26 17:38 | 43.56887 | 15.95160 | 17038 ft | 375 kts | 322° |
| 2026-04-26 17:38 | 43.58904 | 15.92936 | 17596 ft | 379 kts | 322° |
| 2026-04-26 17:38 | 43.60975 | 15.90652 | 18181 ft | 383 kts | 322° |
| 2026-04-26 17:39 | 43.63068 | 15.88343 | 18695 ft | 387 kts | 322° |
| 2026-04-26 17:39 | 43.65175 | 15.86016 | 19218 ft | 389 kts | 322° |
| 2026-04-26 17:39 | 43.67293 | 15.83673 | 19759 ft | 391 kts | 322° |
| 2026-04-26 17:39 | 43.69419 | 15.81313 | 20308 ft | 393 kts | 322° |
| 2026-04-26 17:40 | 43.71553 | 15.78941 | 20855 ft | 395 kts | 322° |
| 2026-04-26 17:40 | 43.73003 | 15.77327 | 21227 ft | 396 kts | 322° |
| 2026-04-26 17:40 | 43.75857 | 15.74153 | 21930 ft | 399 kts | 322° |
| 2026-04-26 17:40 | 43.78026 | 15.71741 | 22445 ft | 401 kts | 322° |
| 2026-04-26 17:41 | 43.80208 | 15.69316 | 22952 ft | 403 kts | 322° |
| 2026-04-26 17:41 | 43.82401 | 15.66879 | 23441 ft | 405 kts | 322° |
| 2026-04-26 17:41 | 43.84605 | 15.64427 | 23876 ft | 407 kts | 321° |
| 2026-04-26 17:41 | 43.86817 | 15.61957 | 24271 ft | 409 kts | 321° |
| 2026-04-26 17:42 | 43.89034 | 15.59474 | 24668 ft | 411 kts | 321° |
| 2026-04-26 17:42 | 43.91260 | 15.56977 | 25045 ft | 412 kts | 321° |
| 2026-04-26 17:42 | 43.93495 | 15.54470 | 25407 ft | 414 kts | 321° |
| 2026-04-26 17:42 | 43.95737 | 15.51957 | 25755 ft | 416 kts | 321° |
| 2026-04-26 17:43 | 43.97999 | 15.49419 | 26106 ft | 418 kts | 321° |
| 2026-04-26 17:43 | 44.00262 | 15.46875 | 26456 ft | 420 kts | 321° |
| 2026-04-26 17:43 | 44.02537 | 15.44313 | 26799 ft | 422 kts | 321° |
| 2026-04-26 17:43 | 44.04818 | 15.41743 | 27134 ft | 424 kts | 321° |
| 2026-04-26 17:44 | 44.07111 | 15.39158 | 27470 ft | 425 kts | 321° |
| 2026-04-26 17:44 | 44.09400 | 15.36538 | 27795 ft | 427 kts | 317° |
| 2026-04-26 17:44 | 44.11501 | 15.33610 | 28110 ft | 428 kts | 314° |
| 2026-04-26 17:44 | 44.13570 | 15.30615 | 28430 ft | 430 kts | 314° |
| 2026-04-26 17:45 | 44.15643 | 15.27605 | 28740 ft | 431 kts | 314° |
| 2026-04-26 17:45 | 44.17724 | 15.24583 | 29044 ft | 433 kts | 314° |
| 2026-04-26 17:45 | 44.19815 | 15.21548 | 29327 ft | 435 kts | 314° |
| 2026-04-26 17:45 | 44.21913 | 15.18505 | 29602 ft | 436 kts | 314° |
| 2026-04-26 17:46 | 44.24019 | 15.15448 | 29880 ft | 438 kts | 313° |
| 2026-04-26 17:46 | 44.26129 | 15.12377 | 30129 ft | 439 kts | 313° |
| 2026-04-26 17:46 | 44.28246 | 15.09295 | 30349 ft | 440 kts | 313° |
| 2026-04-26 17:46 | 44.30368 | 15.06203 | 30548 ft | 442 kts | 313° |
| 2026-04-26 17:47 | 44.32493 | 15.03104 | 30800 ft | 441 kts | 313° |
| 2026-04-26 17:47 | 44.33893 | 15.01059 | 30993 ft | 440 kts | 313° |
| 2026-04-26 17:47 | 44.36721 | 14.96924 | 31390 ft | 439 kts | 313° |
| 2026-04-26 17:47 | 44.38826 | 14.93841 | 31671 ft | 438 kts | 313° |
| 2026-04-26 17:48 | 44.40928 | 14.90762 | 31959 ft | 437 kts | 313° |
| 2026-04-26 17:48 | 44.43024 | 14.87687 | 32250 ft | 436 kts | 313° |
| 2026-04-26 17:48 | 44.45087 | 14.84657 | 32526 ft | 435 kts | 313° |
| 2026-04-26 17:48 | 44.47171 | 14.81587 | 32812 ft | 435 kts | 313° |
| 2026-04-26 17:49 | 44.49250 | 14.78519 | 33093 ft | 434 kts | 313° |
| 2026-04-26 17:49 | 44.51326 | 14.75456 | 33374 ft | 433 kts | 313° |
| 2026-04-26 17:49 | 44.53400 | 14.72398 | 33640 ft | 432 kts | 313° |
| 2026-04-26 17:49 | 44.55468 | 14.69342 | 33919 ft | 432 kts | 313° |
| 2026-04-26 17:50 | 44.57535 | 14.66292 | 34183 ft | 431 kts | 312° |
| 2026-04-26 17:50 | 44.59598 | 14.63243 | 34416 ft | 431 kts | 312° |
| 2026-04-26 17:50 | 44.61657 | 14.60195 | 34642 ft | 430 kts | 312° |
| 2026-04-26 17:50 | 44.63713 | 14.57145 | 34863 ft | 430 kts | 312° |
| 2026-04-26 17:51 | 44.65764 | 14.54093 | 35092 ft | 429 kts | 312° |
| 2026-04-26 17:51 | 44.67810 | 14.51045 | 35310 ft | 428 kts | 312° |
| 2026-04-26 17:51 | 44.69847 | 14.48004 | 35515 ft | 428 kts | 311° |
| 2026-04-26 17:51 | 44.71887 | 14.44956 | 35706 ft | 428 kts | 311° |
| 2026-04-26 17:52 | 44.73929 | 14.41906 | 35895 ft | 428 kts | 311° |
| 2026-04-26 17:52 | 44.75970 | 14.38859 | 36051 ft | 428 kts | 311° |
| 2026-04-26 17:52 | 44.80044 | 14.32779 | 36079 ft | 427 kts | 311° |
| 2026-04-26 17:53 | 44.84109 | 14.26680 | 36085 ft | 427 kts | 311° |
| 2026-04-26 17:54 | 44.90193 | 14.17524 | 36080 ft | 426 kts | 311° |
| 2026-04-26 17:54 | 44.94240 | 14.11427 | 36081 ft | 425 kts | 311° |
| 2026-04-26 17:55 | 44.98279 | 14.05321 | 36086 ft | 425 kts | 311° |
| 2026-04-26 17:55 | 45.02311 | 13.99214 | 36087 ft | 425 kts | 311° |
| 2026-04-26 17:56 | 45.06320 | 13.93136 | 36086 ft | 425 kts | 311° |
| 2026-04-26 17:57 | 45.14376 | 13.80874 | 36095 ft | 425 kts | 311° |
| 2026-04-26 17:57 | 45.18396 | 13.74731 | 36095 ft | 425 kts | 311° |
| 2026-04-26 17:58 | 45.26408 | 13.62425 | 36094 ft | 424 kts | 311° |
| 2026-04-26 17:59 | 45.32561 | 13.53375 | 36088 ft | 425 kts | 314° |
| 2026-04-26 17:59 | 45.36861 | 13.47600 | 36088 ft | 425 kts | 315° |
| 2026-04-26 18:00 | 45.41153 | 13.41811 | 36095 ft | 425 kts | 314° |
| 2026-04-26 18:00 | 45.45399 | 13.35958 | 36095 ft | 425 kts | 314° |
| 2026-04-26 18:01 | 45.49624 | 13.30068 | 36097 ft | 425 kts | 314° |
| 2026-04-26 18:01 | 45.53846 | 13.24177 | 36103 ft | 425 kts | 314° |
| 2026-04-26 18:02 | 45.56674 | 13.20239 | 36106 ft | 425 kts | 314° |
| 2026-04-26 18:02 | 45.62312 | 13.12393 | 36120 ft | 425 kts | 314° |
| 2026-04-26 18:03 | 45.66535 | 13.06487 | 36112 ft | 424 kts | 314° |
| 2026-04-26 18:03 | 45.70744 | 13.00568 | 36103 ft | 424 kts | 314° |
| 2026-04-26 18:04 | 45.74943 | 12.94652 | 36101 ft | 424 kts | 314° |
| 2026-04-26 18:05 | 45.81226 | 12.85815 | 36100 ft | 424 kts | 314° |
| 2026-04-26 18:05 | 45.85426 | 12.79884 | 36113 ft | 424 kts | 313° |
| 2026-04-26 18:06 | 45.89618 | 12.73937 | 36110 ft | 424 kts | 313° |
| 2026-04-26 18:06 | 45.93814 | 12.67995 | 36115 ft | 423 kts | 313° |
| 2026-04-26 18:07 | 45.98003 | 12.62045 | 36120 ft | 423 kts | 313° |
| 2026-04-26 18:07 | 46.02181 | 12.56082 | 36124 ft | 423 kts | 313° |
| 2026-04-26 18:08 | 46.06353 | 12.50116 | 36128 ft | 422 kts | 313° |
| 2026-04-26 18:08 | 46.10516 | 12.44156 | 36128 ft | 422 kts | 313° |
| 2026-04-26 18:09 | 46.14679 | 12.38178 | 36126 ft | 422 kts | 313° |
| 2026-04-26 18:09 | 46.18839 | 12.32195 | 36128 ft | 422 kts | 313° |
| 2026-04-26 18:10 | 46.22998 | 12.26202 | 36122 ft | 422 kts | 313° |
| 2026-04-26 18:10 | 46.27148 | 12.20204 | 36126 ft | 422 kts | 313° |
| 2026-04-26 18:11 | 46.31289 | 12.14198 | 36126 ft | 422 kts | 313° |
| 2026-04-26 18:11 | 46.35429 | 12.08175 | 36131 ft | 422 kts | 313° |
| 2026-04-26 18:12 | 46.39576 | 12.02148 | 36130 ft | 423 kts | 313° |
| 2026-04-26 18:12 | 46.43020 | 11.97137 | 36116 ft | 422 kts | 313° |
| 2026-04-26 18:13 | 46.47164 | 11.91090 | 36117 ft | 422 kts | 312° |
| 2026-04-26 18:13 | 46.51302 | 11.85031 | 36117 ft | 422 kts | 312° |
| 2026-04-26 18:14 | 46.55423 | 11.78973 | 36113 ft | 422 kts | 312° |
| 2026-04-26 18:14 | 46.59547 | 11.72895 | 36105 ft | 422 kts | 312° |
| 2026-04-26 18:15 | 46.63677 | 11.66811 | 36095 ft | 422 kts | 312° |
| 2026-04-26 18:15 | 46.67797 | 11.60713 | 36095 ft | 422 kts | 312° |
| 2026-04-26 18:16 | 46.71918 | 11.54617 | 36101 ft | 422 kts | 312° |
| 2026-04-26 18:16 | 46.78080 | 11.45454 | 36116 ft | 422 kts | 312° |
| 2026-04-26 18:17 | 46.82185 | 11.39329 | 36140 ft | 422 kts | 312° |
| 2026-04-26 18:17 | 46.86290 | 11.33205 | 36137 ft | 422 kts | 312° |
| 2026-04-26 18:18 | 46.90382 | 11.27076 | 36144 ft | 421 kts | 312° |
| 2026-04-26 18:18 | 46.94575 | 11.21086 | 36147 ft | 423 kts | 320° |
| 2026-04-26 18:19 | 46.99513 | 11.16358 | 36163 ft | 425 kts | 325° |
| 2026-04-26 18:19 | 47.04521 | 11.11751 | 36156 ft | 425 kts | 325° |
| 2026-04-26 18:20 | 47.09480 | 11.07019 | 36183 ft | 424 kts | 319° |
| 2026-04-26 18:20 | 47.13284 | 11.02486 | 36175 ft | 423 kts | 319° |
| 2026-04-26 18:21 | 47.16335 | 10.98835 | 35913 ft | 422 kts | 319° |
| 2026-04-26 18:21 | 47.18584 | 10.96144 | 35185 ft | 423 kts | 318° |
| 2026-04-26 18:21 | 47.20869 | 10.93408 | 34467 ft | 424 kts | 318° |
| 2026-04-26 18:21 | 47.23159 | 10.90663 | 33704 ft | 425 kts | 318° |
| 2026-04-26 18:22 | 47.25455 | 10.87906 | 32839 ft | 427 kts | 318° |
| 2026-04-26 18:22 | 47.27752 | 10.85144 | 32184 ft | 425 kts | 318° |
| 2026-04-26 18:22 | 47.30028 | 10.82403 | 31600 ft | 422 kts | 317° |
| 2026-04-26 18:22 | 47.32291 | 10.79674 | 31017 ft | 419 kts | 317° |
| 2026-04-26 18:23 | 47.34535 | 10.76964 | 30455 ft | 416 kts | 317° |
| 2026-04-26 18:23 | 47.36770 | 10.74262 | 30207 ft | 416 kts | 317° |
| 2026-04-26 18:23 | 47.41321 | 10.68976 | 30209 ft | 418 kts | 321° |
| 2026-04-26 18:24 | 47.46128 | 10.64113 | 30211 ft | 419 kts | 323° |
| 2026-04-26 18:24 | 47.50987 | 10.59343 | 30217 ft | 419 kts | 323° |
| 2026-04-26 18:25 | 47.55800 | 10.54476 | 30213 ft | 419 kts | 320° |
| 2026-04-26 18:25 | 47.57895 | 10.51583 | 29833 ft | 409 kts | 305° |
| 2026-04-26 18:25 | 47.59320 | 10.48011 | 29244 ft | 400 kts | 290° |
| 2026-04-26 18:26 | 47.60077 | 10.44137 | 28651 ft | 395 kts | 283° |
| 2026-04-26 18:26 | 47.60731 | 10.40199 | 28059 ft | 392 kts | 283° |
| 2026-04-26 18:26 | 47.61385 | 10.36296 | 27490 ft | 389 kts | 283° |
| 2026-04-26 18:26 | 47.62038 | 10.32430 | 26953 ft | 385 kts | 283° |
| 2026-04-26 18:27 | 47.62688 | 10.28593 | 26430 ft | 382 kts | 283° |
| 2026-04-26 18:27 | 47.63333 | 10.24788 | 25914 ft | 379 kts | 283° |
| 2026-04-26 18:27 | 47.63973 | 10.21013 | 25398 ft | 376 kts | 283° |
| 2026-04-26 18:27 | 47.64606 | 10.17264 | 24919 ft | 373 kts | 283° |
| 2026-04-26 18:28 | 47.65233 | 10.13542 | 24441 ft | 371 kts | 283° |
| 2026-04-26 18:28 | 47.65852 | 10.09845 | 23974 ft | 368 kts | 284° |
| 2026-04-26 18:28 | 47.66462 | 10.06174 | 23486 ft | 365 kts | 284° |
| 2026-04-26 18:28 | 47.67064 | 10.02528 | 22971 ft | 362 kts | 284° |
| 2026-04-26 18:29 | 47.67661 | 9.98913 | 22646 ft | 361 kts | 284° |
| 2026-04-26 18:29 | 47.68258 | 9.95296 | 22377 ft | 361 kts | 284° |
| 2026-04-26 18:29 | 47.68855 | 9.91687 | 22103 ft | 359 kts | 284° |
| 2026-04-26 18:29 | 47.69451 | 9.88091 | 21840 ft | 358 kts | 284° |
| 2026-04-26 18:30 | 47.70044 | 9.84505 | 21582 ft | 357 kts | 284° |
| 2026-04-26 18:30 | 47.70632 | 9.80932 | 21322 ft | 356 kts | 284° |
| 2026-04-26 18:30 | 47.71216 | 9.77371 | 21063 ft | 354 kts | 283° |
| 2026-04-26 18:30 | 47.71795 | 9.73821 | 20810 ft | 353 kts | 283° |
| 2026-04-26 18:31 | 47.72372 | 9.70283 | 20557 ft | 352 kts | 283° |
| 2026-04-26 18:31 | 47.72808 | 9.66723 | 20307 ft | 350 kts | 275° |
| 2026-04-26 18:31 | 47.72818 | 9.63160 | 20064 ft | 350 kts | 268° |
| 2026-04-26 18:31 | 47.72706 | 9.59559 | 19815 ft | 348 kts | 268° |
| 2026-04-26 18:32 | 47.72601 | 9.55969 | 19588 ft | 347 kts | 268° |
| 2026-04-26 18:32 | 47.72498 | 9.52390 | 19344 ft | 346 kts | 268° |
| 2026-04-26 18:32 | 47.72395 | 9.48831 | 19100 ft | 345 kts | 268° |
| 2026-04-26 18:32 | 47.72125 | 9.45295 | 18861 ft | 345 kts | 258° |
| 2026-04-26 18:33 | 47.71360 | 9.41923 | 18614 ft | 344 kts | 247° |
| 2026-04-26 18:33 | 47.70132 | 9.38881 | 18154 ft | 345 kts | 234° |
| 2026-04-26 18:33 | 47.68621 | 9.36127 | 17690 ft | 343 kts | 233° |
| 2026-04-26 18:33 | 47.67114 | 9.33396 | 17232 ft | 341 kts | 233° |
| 2026-04-26 18:34 | 47.65617 | 9.30683 | 16782 ft | 339 kts | 233° |
| 2026-04-26 18:34 | 47.64126 | 9.27982 | 16320 ft | 338 kts | 233° |
| 2026-04-26 18:34 | 47.62641 | 9.25289 | 15871 ft | 336 kts | 233° |
| 2026-04-26 18:34 | 47.61168 | 9.22612 | 15421 ft | 335 kts | 233° |
| 2026-04-26 18:35 | 47.59874 | 9.19770 | 14992 ft | 332 kts | 244° |
| 2026-04-26 18:35 | 47.59028 | 9.16616 | 14560 ft | 329 kts | 256° |
| 2026-04-26 18:35 | 47.58578 | 9.13305 | 14124 ft | 327 kts | 261° |
| 2026-04-26 18:35 | 47.58172 | 9.09990 | 13666 ft | 327 kts | 260° |
| 2026-04-26 18:36 | 47.57762 | 9.06690 | 13211 ft | 325 kts | 260° |
| 2026-04-26 18:36 | 47.57466 | 9.03388 | 12755 ft | 322 kts | 269° |
| 2026-04-26 18:36 | 47.57562 | 9.00130 | 12280 ft | 321 kts | 274° |
| 2026-04-26 18:36 | 47.57725 | 8.96792 | 11795 ft | 320 kts | 274° |
| 2026-04-26 18:37 | 47.57879 | 8.93536 | 11542 ft | 311 kts | 274° |
| 2026-04-26 18:37 | 47.58021 | 8.90451 | 11334 ft | 291 kts | 274° |
| 2026-04-26 18:37 | 47.58155 | 8.87544 | 10835 ft | 283 kts | 274° |
| 2026-04-26 18:37 | 47.58290 | 8.84619 | 10464 ft | 280 kts | 274° |
| 2026-04-26 18:38 | 47.58425 | 8.81725 | 10331 ft | 283 kts | 274° |
| 2026-04-26 18:38 | 47.58559 | 8.78822 | 10192 ft | 283 kts | 274° |
| 2026-04-26 18:38 | 47.58694 | 8.75877 | 9589 ft | 292 kts | 274° |
| 2026-04-26 18:38 | 47.58827 | 8.72928 | 9193 ft | 281 kts | 274° |
| 2026-04-26 18:39 | 47.58957 | 8.70055 | 8544 ft | 278 kts | 274° |
| 2026-04-26 18:39 | 47.59083 | 8.67239 | 7871 ft | 277 kts | 275° |
| 2026-04-26 18:39 | 47.59213 | 8.64350 | 7179 ft | 277 kts | 275° |
| 2026-04-26 18:39 | 47.59339 | 8.61547 | 6494 ft | 277 kts | 275° |
| 2026-04-26 18:40 | 47.59467 | 8.58701 | 5789 ft | 277 kts | 275° |
| 2026-04-26 18:40 | 47.59590 | 8.55881 | 5346 ft | 267 kts | 275° |
| 2026-04-26 18:40 | 47.59702 | 8.53236 | 5186 ft | 247 kts | 275° |
| 2026-04-26 18:40 | 47.59806 | 8.50764 | 5073 ft | 239 kts | 275° |
| 2026-04-26 18:41 | 47.59913 | 8.48309 | 4953 ft | 238 kts | 275° |
| 2026-04-26 18:41 | 47.59884 | 8.45873 | 4741 ft | 236 kts | 255° |
| 2026-04-26 18:41 | 47.59069 | 8.43825 | 4285 ft | 230 kts | 217° |
| 2026-04-26 18:41 | 47.57718 | 8.42869 | 4189 ft | 207 kts | 185° |
| 2026-04-26 18:42 | 47.56336 | 8.43005 | 4102 ft | 195 kts | 157° |
| 2026-04-26 18:42 | 47.55190 | 8.44008 | 3711 ft | 196 kts | 135° |
| 2026-04-26 18:42 | 47.54187 | 8.45477 | 3111 ft | 207 kts | 133° |
| 2026-04-26 18:42 | 47.53125 | 8.46905 | 2779 ft | 205 kts | 135° |
| 2026-04-26 18:43 | 47.52091 | 8.48299 | 2495 ft | 195 kts | 134° |
| 2026-04-26 18:43 | 47.51132 | 8.49605 | 2221 ft | 179 kts | 135° |
| 2026-04-26 18:43 | 47.50272 | 8.50781 | 2006 ft | 159 kts | 135° |
| 2026-04-26 18:43 | 47.49492 | 8.51847 | 1792 ft | 148 kts | 135° |
| 2026-04-26 18:44 | 47.48753 | 8.52865 | 1605 ft | 143 kts | 135° |
| 2026-04-26 18:44 | 47.48031 | 8.53861 | 1438 ft | 141 kts | 135° |
| 2026-04-26 18:44 | 47.47372 | 8.54755 | 1390 ft | 111 kts | 137° |
| 2026-04-26 18:44 | 47.46929 | 8.55356 | 1388 ft | 62 kts | 138° |
| 2026-04-26 18:45 | 47.46718 | 8.55644 | 1394 ft | 32 kts | 137° |
| 2026-04-26 18:45 | 47.46562 | 8.55845 | 1400 ft | 28 kts | 147° |
| 2026-04-26 18:45 | 47.46394 | 8.55952 | 1406 ft | 19 kts | 167° |
| 2026-04-26 18:45 | 47.46327 | 8.55973 | 1402 ft | 0 kts | 168° |
| 2026-04-26 18:47 | 47.46325 | 8.55974 | 1402 ft | 1 kts | 168° |
| 2026-04-26 18:47 | 47.46313 | 8.55978 | 1405 ft | 3 kts | 168° |
| 2026-04-26 18:47 | 47.46289 | 8.55985 | 1402 ft | 4 kts | 173° |
| 2026-04-26 18:48 | 47.46250 | 8.55974 | 1403 ft | 7 kts | 204° |
| 2026-04-26 18:48 | 47.46229 | 8.55897 | 1403 ft | 11 kts | 271° |
| 2026-04-26 18:48 | 47.46237 | 8.55753 | 1401 ft | 17 kts | 276° |
| 2026-04-26 18:48 | 47.46247 | 8.55609 | 1399 ft | 9 kts | 276° |
| 2026-04-26 18:49 | 47.46214 | 8.55555 | 1399 ft | 10 kts | 185° |
| 2026-04-26 18:49 | 47.46179 | 8.55551 | 1407 ft | 4 kts | 185° |
| 2026-04-26 18:49 | 47.46173 | 8.55550 | 1407 ft | 0 kts | 186° |
| 2026-04-26 19:06 | 47.46192 | 8.55552 | 1407 ft | 4 kts | 182° |
| 2026-04-26 19:06 | 47.46219 | 8.55552 | 1405 ft | 4 kts | 173° |
| 2026-04-26 19:06 | 47.46244 | 8.55543 | 1403 ft | 4 kts | 143° |
| 2026-04-26 19:07 | 47.46254 | 8.55524 | 1405 ft | 0 kts | 96° |
| 2026-04-26 19:08 | 47.46253 | 8.55532 | 1405 ft | 2 kts | 96° |
| 2026-04-26 19:09 | 47.46251 | 8.55569 | 1406 ft | 5 kts | 96° |
| 2026-04-26 19:09 | 47.46246 | 8.55637 | 1399 ft | 8 kts | 96° |
| 2026-04-26 19:09 | 47.46238 | 8.55736 | 1401 ft | 11 kts | 96° |
| 2026-04-26 19:09 | 47.46230 | 8.55862 | 1403 ft | 14 kts | 96° |
| 2026-04-26 19:10 | 47.46201 | 8.56004 | 1408 ft | 16 kts | 130° |
| 2026-04-26 19:10 | 47.46115 | 8.56124 | 1408 ft | 18 kts | 137° |
| 2026-04-26 19:10 | 47.46047 | 8.56238 | 1409 ft | 13 kts | 112° |
| 2026-04-26 19:10 | 47.46048 | 8.56291 | 1410 ft | 1 kts | 70° |
| 2026-04-26 19:11 | 47.46057 | 8.56311 | 1412 ft | 4 kts | 52° |
| 2026-04-26 19:11 | 47.46083 | 8.56351 | 1411 ft | 7 kts | 45° |
| 2026-04-26 19:11 | 47.46132 | 8.56408 | 1412 ft | 11 kts | 20° |
| 2026-04-26 19:11 | 47.46185 | 8.56368 | 1412 ft | 3 kts | 316° |
| 2026-04-26 19:12 | 47.46216 | 8.56325 | 1408 ft | 18 kts | 316° |
| 2026-04-26 19:12 | 47.46517 | 8.55917 | 1397 ft | 95 kts | 317° |
| 2026-04-26 19:12 | 47.47152 | 8.55051 | 1386 ft | 151 kts | 317° |
| 2026-04-26 19:12 | 47.47977 | 8.53881 | 1615 ft | 178 kts | 310° |
| 2026-04-26 19:13 | 47.48587 | 8.52142 | 1988 ft | 202 kts | 286° |
| 2026-04-26 19:13 | 47.48750 | 8.49940 | 2234 ft | 236 kts | 267° |
| 2026-04-26 19:13 | 47.48281 | 8.47514 | 2622 ft | 260 kts | 236° |
| 2026-04-26 19:13 | 47.46918 | 8.45718 | 3212 ft | 269 kts | 201° |
| 2026-04-26 19:14 | 47.45073 | 8.45306 | 4016 ft | 267 kts | 167° |
| 2026-04-26 19:14 | 47.43416 | 8.46424 | 4830 ft | 265 kts | 135° |
| 2026-04-26 19:14 | 47.42449 | 8.48657 | 5608 ft | 265 kts | 103° |
| 2026-04-26 19:14 | 47.42334 | 8.50485 | 6158 ft | 266 kts | 82° |
| 2026-04-26 19:15 | 47.43032 | 8.53978 | 7203 ft | 271 kts | 70° |
| 2026-04-26 19:15 | 47.43668 | 8.56625 | 7977 ft | 276 kts | 69° |
| 2026-04-26 19:15 | 47.44321 | 8.59335 | 8704 ft | 284 kts | 70° |
| 2026-04-26 19:15 | 47.44988 | 8.62115 | 9433 ft | 290 kts | 70° |